Map

Track Data

SID SEASON NUMBER BASIN SUBBASIN NAME ISO_TIME NATURE LAT LON WMO_WIND WMO_PRES WMO_AGENCY TRACK_TYPE DIST2LAND LANDFALL IFLAG USA_AGENCY USA_ATCF_ID USA_LAT USA_LON USA_RECORD USA_STATUS USA_WIND USA_PRES USA_SSHS USA_R34_NE USA_R34_SE USA_R34_SW USA_R34_NW USA_R50_NE USA_R50_SE USA_R50_SW USA_R50_NW USA_R64_NE USA_R64_SE USA_R64_SW USA_R64_NW USA_POCI USA_ROCI USA_RMW USA_EYE TOKYO_LAT TOKYO_LON TOKYO_GRADE TOKYO_WIND TOKYO_PRES TOKYO_R50_DIR TOKYO_R50_LONG TOKYO_R50_SHORT TOKYO_R30_DIR TOKYO_R30_LONG TOKYO_R30_SHORT TOKYO_LAND CMA_LAT CMA_LON CMA_CAT CMA_WIND CMA_PRES HKO_LAT HKO_LON HKO_CAT HKO_WIND HKO_PRES NEWDELHI_LAT NEWDELHI_LON NEWDELHI_GRADE NEWDELHI_WIND NEWDELHI_PRES NEWDELHI_CI NEWDELHI_DP NEWDELHI_POCI REUNION_LAT REUNION_LON REUNION_TYPE REUNION_WIND REUNION_PRES REUNION_TNUM REUNION_CI REUNION_RMW REUNION_R34_NE REUNION_R34_SE REUNION_R34_SW REUNION_R34_NW REUNION_R50_NE REUNION_R50_SE REUNION_R50_SW REUNION_R50_NW REUNION_R64_NE REUNION_R64_SE REUNION_R64_SW REUNION_R64_NW BOM_LAT BOM_LON BOM_TYPE BOM_WIND BOM_PRES BOM_TNUM BOM_CI BOM_RMW BOM_R34_NE BOM_R34_SE BOM_R34_SW BOM_R34_NW BOM_R50_NE BOM_R50_SE BOM_R50_SW BOM_R50_NW BOM_R64_NE BOM_R64_SE BOM_R64_SW BOM_R64_NW BOM_ROCI BOM_POCI BOM_EYE BOM_POS_METHOD BOM_PRES_METHOD NADI_LAT NADI_LON NADI_CAT NADI_WIND NADI_PRES WELLINGTON_LAT WELLINGTON_LON WELLINGTON_WIND WELLINGTON_PRES DS824_LAT DS824_LON DS824_STAGE DS824_WIND DS824_PRES TD9636_LAT TD9636_LON TD9636_STAGE TD9636_WIND TD9636_PRES TD9635_LAT TD9635_LON TD9635_WIND TD9635_PRES TD9635_ROCI NEUMANN_LAT NEUMANN_LON NEUMANN_CLASS NEUMANN_WIND NEUMANN_PRES MLC_LAT MLC_LON MLC_CLASS MLC_WIND MLC_PRES USA_GUST BOM_GUST BOM_GUST_PER REUNION_GUST REUNION_GUST_PER USA_SEAHGT USA_SEARAD_NE USA_SEARAD_SE USA_SEARAD_SW USA_SEARAD_NW STORM_SPEED STORM_DIR
1933069S15153 1933 6 SP EA NOT_NAMED 1933-03-09 23:00:00 NR -15.2000 152.500 bom main 550 550 ______O___O___ -1 -15.1000 152.600 -15.3000 152.400 7 6 0
1933069S15153 1933 6 SP EA NOT_NAMED 1933-03-10 00:00:00 NR -15.2998 152.475 main 561 561 ______P___P___ -1 -15.2196 152.554 -15.3800 152.397 7 6 192
1933069S15153 1933 6 SP EA NOT_NAMED 1933-03-10 03:00:00 NR -15.5965 152.405 main 589 589 ______P___P___ -1 -15.5715 152.423 -15.6215 152.388 7 6 192
1933069S15153 1933 6 SP EA NOT_NAMED 1933-03-10 06:00:00 TS -15.8854 152.348 main 615 606 ______P__OP___ -1 -15.8992 152.322 -15.9000 152.300 TC -15.8680 152.385 7 6 190
1933069S15153 1933 6 SP EA NOT_NAMED 1933-03-10 07:00:00 TS -15.9759 152.336 bom main 606 597 ______O__PP___ -1 -16.0000 152.300 -15.9755 152.311 TC -15.9519 152.385 7 5 184
1933069S15153 1933 6 SP EA NOT_NAMED 1933-03-10 09:00:00 TS -16.1471 152.332 main 597 580 ______P__PP___ -1 -16.1863 152.275 -16.1268 152.332 TC -16.1232 152.390 7 5 177
1933069S15153 1933 6 SP EA NOT_NAMED 1933-03-10 11:00:00 TS -16.3111 152.343 main 580 571 ______P__PO___ -1 -16.3548 152.275 -16.2785 152.356 TC -16.3000 152.400 7 5 174
1933069S15153 1933 6 SP EA NOT_NAMED 1933-03-10 12:00:00 TS -16.3930 152.353 main 578 561 ______P__PP___ -1 -16.4336 152.282 -16.3547 152.368 TC -16.3908 152.408 7 5 171
1933069S15153 1933 6 SP EA NOT_NAMED 1933-03-10 15:00:00 TS -16.6360 152.394 main 561 544 ______P__PP___ -1 -16.6535 152.334 -16.5848 152.410 TC -16.6696 152.440 7 5 169
1933069S15153 1933 6 SP EA NOT_NAMED 1933-03-10 18:00:00 TS -16.8759 152.455 main 544 529 ______P__PP___ -1 -16.8583 152.418 -16.8183 152.460 TC -16.9510 152.488 7 5 165
1933069S15153 1933 6 SP EA NOT_NAMED 1933-03-10 21:00:00 TS -17.1141 152.532 main 529 521 ______P__PP___ -1 -17.0605 152.523 -17.0564 152.523 TC -17.2254 152.550 7 5 161
1933069S15153 1933 6 SP EA NOT_NAMED 1933-03-10 23:00:00 TS -17.2727 152.591 bom main 522 522 ______O__PO___ -1 -17.2000 152.600 -17.2181 152.572 TC -17.4000 152.600 7 5 161
1933069S15153 1933 6 SP EA NOT_NAMED 1933-03-11 00:00:00 TS -17.3538 152.617 main 514 509 ______P__OP___ -1 -17.2809 152.628 -17.3000 152.600 TC -17.4805 152.624 7 5 161
1933069S15153 1933 6 SP EA NOT_NAMED 1933-03-11 03:00:00 TS -17.5965 152.707 main 509 502 ______P__PP___ -1 -17.5291 152.719 -17.5500 152.695 TC -17.7103 152.707 7 5 159
1933069S15153 1933 6 SP EA NOT_NAMED 1933-03-11 06:00:00 TS -17.8402 152.811 main 504 495 ______P__PP___ -1 -17.7846 152.823 -17.8057 152.806 TC -17.9302 152.804 7 5 157
1933069S15153 1933 6 SP EA NOT_NAMED 1933-03-11 09:00:00 TS -18.0871 152.929 main 495 495 ______P__PP___ -1 -18.0459 152.939 -18.0660 152.931 TC -18.1495 152.917 7 6 155
1933069S15153 1933 6 SP EA NOT_NAMED 1933-03-11 11:00:00 TS -18.2547 153.014 main 494 494 ______P__PO___ -1 -18.2226 153.022 -18.2416 153.021 TC -18.3000 153.000 7 6 154
1933069S15153 1933 6 SP EA NOT_NAMED 1933-03-11 12:00:00 TS -18.3408 153.058 main 503 493 ______P__PP___ -1 -18.3115 153.065 -18.3298 153.068 TC -18.3812 153.041 7 6 154
1933069S15153 1933 6 SP EA NOT_NAMED 1933-03-11 15:00:00 TS -18.6024 153.196 main 498 475 ______P__PP___ -1 -18.5801 153.200 -18.5962 153.215 TC -18.6308 153.173 7 6 153
1933069S15153 1933 6 SP EA NOT_NAMED 1933-03-11 18:00:00 TS -18.8663 153.346 main 475 470 ______P__PP___ -1 -18.8502 153.344 -18.8640 153.371 TC -18.8846 153.321 7 6 151
1933069S15153 1933 6 SP EA NOT_NAMED 1933-03-11 21:00:00 TS -19.1297 153.504 main 470 459 ______P__PP___ -1 -19.1205 153.496 -19.1323 153.534 TC -19.1364 153.483 7 6 150
1933069S15153 1933 6 SP EA NOT_NAMED 1933-03-11 23:00:00 TS -19.3036 153.615 bom main 459 457 ______O__PO___ -1 -19.3000 153.600 -19.3109 153.644 TC -19.3000 153.600 7 6 149
1933069S15153 1933 6 SP EA NOT_NAMED 1933-03-12 00:00:00 TS -19.3896 153.670 main 457 448 ______P__OP___ -1 -19.3904 153.648 -19.4000 153.700 TC -19.3784 153.661 7 6 149
1933069S15153 1933 6 SP EA NOT_NAMED 1933-03-12 03:00:00 TS -19.6475 153.833 main 448 440 ______P__PP___ -1 -19.6629 153.795 -19.6718 153.848 TC -19.6079 153.856 7 6 149
1933069S15153 1933 6 SP EA NOT_NAMED 1933-03-12 06:00:00 TS -19.9041 154.004 main 441 433 ______P__PP___ -1 -19.9359 153.950 -19.9448 154.001 TC -19.8317 154.061 7 6 148
1933069S15153 1933 6 SP EA NOT_NAMED 1933-03-12 09:00:00 TS -20.1591 154.180 main 435 429 ______P__PP___ -1 -20.2075 154.112 -20.2171 154.159 TC -20.0526 154.267 7 6 147
1933069S15153 1933 6 SP EA NOT_NAMED 1933-03-12 11:00:00 TS -20.3280 154.298 main 437 431 ______P__PO___ -1 -20.3869 154.226 -20.3972 154.269 TC -20.2000 154.400 7 6 147
1933069S15153 1933 6 SP EA NOT_NAMED 1933-03-12 12:00:00 TS -20.4125 154.356 main 440 434 ______P__PP___ -1 -20.4758 154.284 -20.4867 154.326 TC -20.2749 154.458 7 6 147
1933069S15153 1933 6 SP EA NOT_NAMED 1933-03-12 15:00:00 TS -20.6635 154.531 main 432 432 ______P__PP___ -1 -20.7389 154.465 -20.7517 154.502 TC -20.4998 154.625 7 6 146
1933069S15153 1933 6 SP EA NOT_NAMED 1933-03-12 18:00:00 TS -20.9099 154.712 main 440 436 ______P__PP___ -1 -20.9948 154.656 -21.0103 154.688 TC -20.7247 154.792 7 6 144
1933069S15153 1933 6 SP EA NOT_NAMED 1933-03-12 21:00:00 TS -21.1506 154.905 main 434 428 ______P__PP___ -1 -21.2415 154.859 -21.2603 154.887 TC -20.9498 154.969 7 6 142
1933069S15153 1933 6 SP EA NOT_NAMED 1933-03-12 23:00:00 TS -21.3071 155.042 bom main 428 422 ______O__PO___ -1 -21.4000 155.000 -21.4214 155.027 TC -21.1000 155.100 7 6 141
1933069S15153 1933 6 SP EA NOT_NAMED 1933-03-13 00:00:00 TS -21.3791 155.110 main 422 411 ______P__OP___ -1 -21.4623 155.058 -21.5000 155.100 TC -21.1750 155.173 7 5 136
1933069S15153 1933 6 SP EA NOT_NAMED 1933-03-13 03:00:00 TS -21.5701 155.310 main 411 407 ______P__PP___ -1 -21.6356 155.232 -21.6747 155.289 TC -21.4000 155.410 7 5 134
1933069S15153 1933 6 SP EA NOT_NAMED 1933-03-13 06:00:00 TS -21.7515 155.522 main 403 400 ______P__PP___ -1 -21.7966 155.416 -21.8329 155.488 TC -21.6250 155.664 7 5 132
1933069S15153 1933 6 SP EA NOT_NAMED 1933-03-13 09:00:00 TS -21.9310 155.748 main 406 403 ______P__PP___ -1 -21.9564 155.616 -21.9866 155.701 TC -21.8500 155.926 7 6 130
1933069S15153 1933 6 SP EA NOT_NAMED 1933-03-13 11:00:00 TS -22.0533 155.906 main 401 401 ______P__PO___ -1 -22.0675 155.762 -22.0924 155.855 TC -22.0000 156.100 7 6 130
1933069S15153 1933 6 SP EA NOT_NAMED 1933-03-13 12:00:00 TS -22.1127 155.983 main 408 400 ______P__PP___ -1 -22.1256 155.840 -22.1476 155.936 TC -22.0650 156.173 7 6 130
1933069S15153 1933 6 SP EA NOT_NAMED 1933-03-13 15:00:00 TS -22.2995 156.226 main 406 406 ______P__PP___ -1 -22.3150 156.096 -22.3277 156.197 TC -22.2558 156.386 7 6 130
1933069S15153 1933 6 SP EA NOT_NAMED 1933-03-13 18:00:00 TS -22.5114 156.499 main 414 414 ______P__PP___ -1 -22.5353 156.393 -22.5387 156.490 TC -22.4603 156.614 7 7 131
1933069S15153 1933 6 SP EA NOT_NAMED 1933-03-13 21:00:00 TS -22.7644 156.815 main 420 420 ______P__PP___ -1 -22.7972 156.739 -22.7922 156.823 TC -22.7037 156.883 7 8 131
1933069S15153 1933 6 SP EA NOT_NAMED 1933-03-13 23:00:00 TS -22.9636 157.056 bom main 435 435 ______O__PO___ -1 -23.0000 157.000 -22.9907 157.069 TC -22.9000 157.100 7 9 132
1933069S15153 1933 6 SP EA NOT_NAMED 1933-03-14 00:00:00 TS -23.0724 157.192 main 439 439 ______P__OP___ -1 -23.1070 157.149 -23.1000 157.200 TC -23.0100 157.227 7 11 131
1933069S15153 1933 6 SP EA NOT_NAMED 1933-03-14 03:00:00 TS -23.4344 157.645 main 461 461 ______P__PP___ -1 -23.4564 157.633 -23.4647 157.644 TC -23.3821 157.657 7 12 132
1933069S15153 1933 6 SP EA NOT_NAMED 1933-03-14 06:00:00 TS -23.8433 158.138 main 494 494 ______P__PP___ -1 -23.8485 158.149 -23.8741 158.124 TC -23.8072 158.141 7 13 133
1933069S15153 1933 6 SP EA NOT_NAMED 1933-03-14 09:00:00 TS -24.2930 158.647 main 530 530 ______P__PP___ -1 -24.2845 158.668 -24.3214 158.618 TC -24.2730 158.654 7 13 135
1933069S15153 1933 6 SP EA NOT_NAMED 1933-03-14 11:00:00 TS -24.6125 158.981 bom main 566 565 ______O__PO___ -1 -24.6000 159.000 -24.6374 158.942 TC -24.6000 159.000 7 13 137
1933069S15153 1933 6 SP EA NOT_NAMED 1933-03-14 12:00:00 TS -24.7781 159.144 main 574 574 ______P__OP___ -1 -24.7664 159.157 -24.8000 159.100 TC -24.7678 159.174 7 14 140
1933069S15153 1933 6 SP EA NOT_NAMED 1933-03-14 15:00:00 TS -25.3006 159.626 main 624 624 ______P__PP___ -1 -25.3005 159.614 -25.3052 159.557 TC -25.2960 159.706 7 14 141
1933069S15153 1933 6 SP MM NOT_NAMED 1933-03-14 18:00:00 TS -25.8470 160.091 main 678 678 ______P__PP___ -1 -25.8653 160.047 -25.8369 159.998 TC -25.8390 160.230 7 14 143
1933069S15153 1933 6 SP MM NOT_NAMED 1933-03-14 21:00:00 TS -26.3922 160.526 main 710 710 ______P__PP___ -1 -26.4332 160.450 -26.3750 160.414 TC -26.3684 160.715 7 13 145
1933069S15153 1933 6 SP MM NOT_NAMED 1933-03-14 23:00:00 TS -26.7426 160.792 bom main 723 723 ______O__PO___ -1 -26.8000 160.700 -26.7277 160.675 TC -26.7000 161.000 7 12 146
1933069S15153 1933 6 SP MM NOT_NAMED 1933-03-15 00:00:00 TS -26.9076 160.915 main 733 733 ______P__OP___ -1 -26.9730 160.820 -26.9000 160.800 TC -26.8497 161.124 7 11 148
1933069S15153 1933 6 SP MM NOT_NAMED 1933-03-15 03:00:00 TS -27.3820 161.250 main 751 751 ______P__PP___ -1 -27.4784 161.154 -27.3961 161.149 TC -27.2716 161.446 7 11 149
1933069S15153 1933 6 SP MM NOT_NAMED 1933-03-15 06:00:00 TS -27.8303 161.542 main 775 775 ______P__PP___ -1 -27.9620 161.453 -27.8635 161.463 TC -27.6653 161.712 7 10 151
1933069S15153 1933 6 SP MM NOT_NAMED 1933-03-15 09:00:00 TS -28.2582 161.805 main 801 801 ______P__PP___ -1 -28.4219 161.722 -28.3066 161.747 TC -28.0459 161.947 7 10 152
1933069S15153 1933 6 SP MM NOT_NAMED 1933-03-15 11:00:00 TS -28.5350 161.970 main 819 817 ______P__PO___ -1 -28.7145 161.888 -28.5906 161.922 TC -28.3000 162.100 7 9 152
1933069S15153 1933 6 SP MM NOT_NAMED 1933-03-15 12:00:00 TS -28.6755 162.054 main 827 826 ______P__PP___ -1 -28.8564 161.969 -28.7296 162.006 TC -28.4406 162.188 7 9 152
1933069S15153 1933 6 SP MM NOT_NAMED 1933-03-15 15:00:00 TS -29.0885 162.298 main 845 845 ______P__PP___ -1 -29.2636 162.201 -29.1364 162.246 TC -28.8657 162.447 7 9 153
1933069S15153 1933 6 SP MM NOT_NAMED 1933-03-15 18:00:00 TS -29.4844 162.531 main 865 865 ______P__PP___ -1 -29.6413 162.425 -29.5311 162.472 TC -29.2809 162.698 7 9 152
1933069S15153 1933 6 SP MM NOT_NAMED 1933-03-15 21:00:00 TS -29.8521 162.766 main 896 896 ______P__PP___ -1 -29.9877 162.648 -29.9177 162.688 TC -29.6675 162.942 7 8 150
1933069S15153 1933 6 SP MM NOT_NAMED 1933-03-15 23:00:00 TS -30.0746 162.926 990 bom main 908 908 ______O__PO___ -1 -30.2000 162.800 990 4 -30.1728 162.829 TC -29.9000 163.100 7 8 146
1933069S15153 1933 6 SP MM NOT_NAMED 1933-03-16 00:00:00 TS -30.1705 163.013 main 919 919 ______P__OP___ -1 -30.3004 162.878 -30.3000 162.900 TC 45 990 -30.0083 163.177 7 7 142
1933069S15153 1933 6 SP MM NOT_NAMED 1933-03-16 03:00:00 NR -30.4410 163.261 main 950 950 ______P___P___ -1 -30.5799 163.118 TC -30.3022 163.403 7 7 141
1933069S15153 1933 6 SP MM NOT_NAMED 1933-03-16 06:00:00 NR -30.6922 163.496 main 950 922 ______P___P___ -1 -30.8299 163.368 TC -30.5546 163.624 7 6 139
1933069S15153 1933 6 SP MM NOT_NAMED 1933-03-16 09:00:00 NR -30.9133 163.737 main 922 900 ______P___P___ -1 -31.0550 163.626 TC -30.7717 163.847 7 6 136
1933069S15153 1933 6 SP MM NOT_NAMED 1933-03-16 11:00:00 NR -31.0466 163.901 main 900 886 ______P___O___ -1 -31.1932 163.802 TC -30.9000 164.000 7 6 132
1933069S15153 1933 6 SP MM NOT_NAMED 1933-03-16 12:00:00 NR -31.1095 163.985 main 886 859 ______P___P___ -1 -31.2592 163.891 TC -30.9599 164.078 7 6 129
1933069S15153 1933 6 SP MM NOT_NAMED 1933-03-16 15:00:00 NR -31.2860 164.241 main 859 829 ______P___P___ -1 -31.4470 164.161 TC -31.1251 164.320 7 6 127
1933069S15153 1933 6 SP MM NOT_NAMED 1933-03-16 18:00:00 NR -31.4480 164.504 main 829 794 ______P___P___ -1 -31.6226 164.436 TC -31.2735 164.571 7 6 125
1933069S15153 1933 6 SP MM NOT_NAMED 1933-03-16 21:00:00 NR -31.6008 164.771 main 794 780 ______P___P___ -1 -31.7904 164.714 TC -31.4112 164.827 7 5 124
1933069S15153 1933 6 SP MM NOT_NAMED 1933-03-16 23:00:00 NR -31.7000 164.950 bom main 772 ______O___O___ -1 -31.9000 164.900 TC -31.5000 165.000 7 5 123

Digital Typhoon Data and Search

About IBTrACS Database

This database is a web-friendly format of International Best Track Archive for Climate Stewardship (IBTrACS), a global best track data archive curated by NOAA dating back to 1842.

Updated: 2021-11-26